Time;durP1;ratioP1;P1;durP2;ratioP2;P2;SDS_P1;SDS_P2;PMS_P1;PMS_P2;Temp;Humidity;BMP_temperature;BMP_pressure;BME280_temperature;BME280_humidity;BME280_pressure;Samples;Min_cycle;Max_cycle;Signal;HPM_P1;HPM_P2
2024/02/06 00:00:12;;;;;;;7.50;5.10;;;;;9.10;101198.00;;;;10439250;28;20863;-80
2024/02/06 00:05:13;;;;;;;12.63;5.50;;;;;9.10;101195.00;;;;10465152;28;20226;-82
2024/02/06 00:10:15;;;;;;;8.00;5.33;;;;;9.20;101213.00;;;;10427174;28;20609;-82
2024/02/06 00:15:16;;;;;;;12.30;6.63;;;;;9.20;101201.00;;;;10441517;28;20233;-82
2024/02/06 00:20:19;;;;;;;10.23;4.93;;;;;9.20;101196.00;;;;10433936;28;20221;-82
2024/02/06 00:25:20;;;;;;;8.73;5.30;;;;;9.20;101186.00;;;;10447242;28;20225;-82
2024/02/06 00:30:22;;;;;;;8.70;5.40;;;;;9.30;101183.00;;;;10406745;28;20312;-80
2024/02/06 00:35:23;;;;;;;10.27;5.37;;;;;9.30;101179.00;;;;10417906;28;20252;-79
2024/02/06 00:40:25;;;;;;;10.00;5.10;;;;;9.30;101176.00;;;;10449537;28;20780;-83
2024/02/06 00:45:27;;;;;;;12.30;5.20;;;;;9.40;101164.00;;;;10478122;28;20217;-80
2024/02/06 00:50:28;;;;;;;8.83;5.60;;;;;9.40;101172.00;;;;10432331;28;20224;-80
2024/02/06 00:55:30;;;;;;;8.27;4.47;;;;;9.40;101149.00;;;;10418925;28;20246;-81
2024/02/06 01:00:35;;;;;;;10.87;5.10;;;;;9.40;101148.00;;;;10428867;28;20225;-80
2024/02/06 01:05:36;;;;;;;10.70;4.97;;;;;9.40;101141.00;;;;10421534;28;20226;-83
2024/02/06 01:10:37;;;;;;;7.40;4.63;;;;;9.40;101141.00;;;;10421828;28;20221;-80
2024/02/06 01:15:38;;;;;;;6.57;4.83;;;;;9.40;101134.00;;;;10443308;28;20265;-78
2024/02/06 01:20:40;;;;;;;9.30;4.77;;;;;9.40;101122.00;;;;10437339;28;20221;-80
2024/02/06 01:25:41;;;;;;;9.80;4.80;;;;;9.50;101130.00;;;;10445213;28;20232;-80
2024/02/06 01:30:42;;;;;;;7.87;4.53;;;;;9.50;101106.00;;;;10442815;28;20256;-81
2024/02/06 01:35:43;;;;;;;8.90;4.70;;;;;9.50;101103.00;;;;10429669;28;20259;-80
2024/02/06 01:40:44;;;;;;;7.47;4.30;;;;;9.50;101101.00;;;;10422698;28;20248;-81
2024/02/06 01:45:46;;;;;;;9.27;4.60;;;;;9.50;101099.00;;;;10456043;28;20229;-81
2024/02/06 01:50:48;;;;;;;6.97;4.23;;;;;9.50;101084.00;;;;10426174;28;20279;-81
2024/02/06 01:55:50;;;;;;;8.43;5.07;;;;;9.50;101102.00;;;;10415334;28;20225;-81
2024/02/06 02:00:51;;;;;;;12.17;4.90;;;;;9.50;101082.00;;;;10496776;28;20210;-82
2024/02/06 02:05:53;;;;;;;8.17;4.53;;;;;9.50;101074.00;;;;10456644;28;20249;-85
2024/02/06 02:10:54;;;;;;;8.27;4.10;;;;;9.50;101088.00;;;;10418140;28;20706;-84
2024/02/06 02:15:57;;;;;;;8.93;4.37;;;;;9.50;101092.00;;;;10470491;28;20280;-86
2024/02/06 02:20:58;;;;;;;6.43;3.67;;;;;9.50;101087.00;;;;10421835;28;20228;-86
2024/02/06 02:26:00;;;;;;;8.17;4.90;;;;;9.60;101069.00;;;;10446045;28;20676;-85
2024/02/06 02:31:02;;;;;;;13.33;5.07;;;;;9.50;101074.00;;;;10421536;28;20292;-85
2024/02/06 02:36:07;;;;;;;6.20;3.97;;;;;9.50;101051.00;;;;10444175;28;20216;-82
2024/02/06 02:41:08;;;;;;;6.30;3.93;;;;;9.60;101058.00;;;;10438131;28;20264;-84
2024/02/06 02:46:11;;;;;;;9.40;4.47;;;;;9.50;101043.00;;;;10438971;28;20601;-85
2024/02/06 02:51:12;;;;;;;6.67;4.10;;;;;9.60;101034.00;;;;10438864;28;20248;-84
2024/02/06 02:56:14;;;;;;;8.30;4.20;;;;;9.60;101016.00;;;;10412050;28;20228;-83
2024/02/06 03:01:16;;;;;;;11.23;4.27;;;;;9.60;100993.00;;;;10423437;28;20213;-85
2024/02/06 03:06:18;;;;;;;8.13;4.10;;;;;9.50;100998.00;;;;10431265;28;20300;-84
2024/02/06 03:11:20;;;;;;;8.23;4.00;;;;;9.50;100996.00;;;;10426983;28;20276;-85
2024/02/06 03:16:21;;;;;;;6.87;4.33;;;;;9.50;101005.00;;;;10429245;28;20927;-85
2024/02/06 03:21:22;;;;;;;8.23;4.10;;;;;9.50;100988.00;;;;10409569;28;20217;-85
2024/02/06 03:26:24;;;;;;;11.27;4.97;;;;;9.50;100967.00;;;;10433154;28;20315;-82
2024/02/06 03:31:25;;;;;;;12.63;4.07;;;;;9.50;100979.00;;;;10418402;28;20304;-82
2024/02/06 03:36:26;;;;;;;8.47;4.20;;;;;9.50;100938.00;;;;10418507;28;20313;-81
2024/02/06 03:41:27;;;;;;;8.93;4.27;;;;;9.50;100956.00;;;;10424199;28;20677;-84
2024/02/06 03:46:28;;;;;;;7.17;3.10;;;;;9.50;100933.00;;;;10429757;28;20644;-83
2024/02/06 03:51:30;;;;;;;7.53;4.43;;;;;9.60;100958.00;;;;10448362;28;20927;-82
2024/02/06 03:56:31;;;;;;;15.53;4.30;;;;;9.60;100940.00;;;;10442797;28;20221;-81
2024/02/06 04:01:32;;;;;;;6.77;3.70;;;;;9.60;100942.00;;;;10427948;28;20221;-84
2024/02/06 04:06:33;;;;;;;6.93;3.80;;;;;9.60;100952.00;;;;10438510;28;20229;-82
2024/02/06 04:11:35;;;;;;;7.70;3.70;;;;;9.60;100952.00;;;;10449685;28;20229;-82
2024/02/06 04:16:36;;;;;;;8.23;4.47;;;;;9.70;100958.00;;;;10421296;28;20851;-82
2024/02/06 04:21:38;;;;;;;11.07;5.00;;;;;9.70;100952.00;;;;10435879;28;20258;-81
2024/02/06 04:26:40;;;;;;;9.07;4.30;;;;;9.70;100939.00;;;;10435540;28;20224;-82
2024/02/06 04:31:41;;;;;;;10.03;4.73;;;;;9.70;100939.00;;;;10445873;28;20221;-82
2024/02/06 04:36:42;;;;;;;16.57;4.20;;;;;9.70;100943.00;;;;10454318;28;20271;-81
2024/02/06 04:41:44;;;;;;;9.60;5.23;;;;;9.70;100928.00;;;;10440845;28;20247;-81
2024/02/06 04:46:45;;;;;;;8.17;4.93;;;;;9.70;100920.00;;;;10434078;28;20616;-81
2024/02/06 04:51:46;;;;;;;10.73;4.57;;;;;9.70;100930.00;;;;10461171;28;20208;-82
2024/02/06 04:56:48;;;;;;;8.20;3.77;;;;;9.70;100910.00;;;;10489454;28;20232;-81
2024/02/06 05:01:49;;;;;;;13.33;4.67;;;;;9.70;100919.00;;;;10440366;28;20233;-80
2024/02/06 05:06:50;;;;;;;8.77;5.37;;;;;9.70;100910.00;;;;10437287;28;20890;-81
2024/02/06 05:11:52;;;;;;;12.83;5.30;;;;;9.70;100913.00;;;;10458802;28;20223;-82
2024/02/06 05:16:53;;;;;;;9.70;5.23;;;;;9.70;100920.00;;;;10428012;28;20241;-80
2024/02/06 05:21:59;;;;;;;8.20;4.63;;;;;9.80;100895.00;;;;10438682;28;20489;-80
2024/02/06 05:27:05;;;;;;;10.40;5.23;;;;;9.70;100896.00;;;;10450072;28;20220;-80
2024/02/06 05:32:06;;;;;;;14.97;4.30;;;;;9.80;100877.00;;;;10456456;28;20228;-79
2024/02/06 05:37:07;;;;;;;10.93;4.77;;;;;9.80;100886.00;;;;10455324;28;20294;-80
2024/02/06 05:42:08;;;;;;;11.00;5.20;;;;;9.80;100876.00;;;;10448629;28;20225;-80
2024/02/06 05:47:10;;;;;;;8.27;5.03;;;;;9.80;100867.00;;;;10449955;28;20221;-80
2024/02/06 05:52:11;;;;;;;14.07;5.33;;;;;9.80;100873.00;;;;10432105;28;20292;-80
2024/02/06 05:57:13;;;;;;;18.77;6.00;;;;;9.90;100873.00;;;;10424500;28;20320;-80
2024/02/06 06:02:14;;;;;;;8.30;5.00;;;;;9.90;100870.00;;;;10461304;28;20220;-80
2024/02/06 06:07:16;;;;;;;11.13;4.80;;;;;9.90;100865.00;;;;10432688;28;20236;-79
2024/02/06 06:12:17;;;;;;;13.47;5.53;;;;;9.90;100869.00;;;;10422467;28;20251;-80
2024/02/06 06:17:18;;;;;;;9.97;4.50;;;;;9.90;100853.00;;;;10452369;28;20233;-80
2024/02/06 06:22:20;;;;;;;11.47;5.03;;;;;9.90;100851.00;;;;10443570;28;20217;-79
2024/02/06 06:27:21;;;;;;;15.83;5.50;;;;;9.90;100848.00;;;;10437298;28;20758;-80
2024/02/06 06:32:23;;;;;;;11.80;5.13;;;;;9.90;100822.00;;;;10416515;28;20245;-80
2024/02/06 06:37:24;;;;;;;11.40;4.90;;;;;9.90;100823.00;;;;10418470;28;20218;-80
2024/02/06 06:42:26;;;;;;;11.03;4.90;;;;;9.90;100839.00;;;;10447436;28;20291;-80
2024/02/06 06:47:29;;;;;;;10.47;5.23;;;;;9.90;100839.00;;;;10418611;28;20290;-81
2024/02/06 06:52:31;;;;;;;15.33;5.40;;;;;9.90;100828.00;;;;10443362;28;20225;-79
2024/02/06 06:57:34;;;;;;;11.17;5.40;;;;;9.90;100825.00;;;;10416748;28;20278;-84
2024/02/06 07:02:35;;;;;;;10.60;4.93;;;;;9.90;100822.00;;;;10415293;28;20251;-82
2024/02/06 07:07:37;;;;;;;10.73;5.33;;;;;9.90;100824.00;;;;10441782;28;20237;-85
2024/02/06 07:12:38;;;;;;;14.10;5.20;;;;;9.90;100825.00;;;;10437637;28;20220;-83
2024/02/06 07:17:41;;;;;;;14.47;5.67;;;;;10.00;100843.00;;;;10461616;28;20225;-84
2024/02/06 07:22:42;;;;;;;12.93;5.83;;;;;10.00;100825.00;;;;10435798;28;20229;-83
2024/02/06 07:27:44;;;;;;;10.67;5.17;;;;;10.00;100827.00;;;;10423030;28;20288;-83
2024/02/06 07:32:45;;;;;;;22.73;5.80;;;;;10.10;100824.00;;;;10430734;28;20240;-83
2024/02/06 07:37:46;;;;;;;13.57;5.73;;;;;10.10;100816.00;;;;10433486;28;20655;-83
2024/02/06 07:42:51;;;;;;;16.43;5.80;;;;;10.10;100797.00;;;;10446944;28;20217;-84
2024/02/06 07:47:53;;;;;;;15.20;8.07;;;;;10.20;100817.00;;;;10446293;28;20210;-83
2024/02/06 07:52:55;;;;;;;11.67;5.47;;;;;10.30;100825.00;;;;10452238;28;20206;-81
2024/02/06 07:57:56;;;;;;;17.60;7.53;;;;;10.40;100820.00;;;;10441836;28;20225;-83
2024/02/06 08:02:58;;;;;;;14.97;5.33;;;;;10.40;100848.00;;;;10410973;28;20849;-84
2024/02/06 08:07:59;;;;;;;14.10;5.60;;;;;10.30;100837.00;;;;10478897;28;20228;-86
2024/02/06 08:13:01;;;;;;;12.93;5.80;;;;;10.30;100827.00;;;;10480205;28;20208;-86
2024/02/06 08:18:03;;;;;;;13.10;5.37;;;;;10.40;100844.00;;;;10469813;28;20262;-87
2024/02/06 08:23:04;;;;;;;14.23;6.10;;;;;10.40;100848.00;;;;10453500;28;20205;-86
2024/02/06 08:28:06;;;;;;;11.73;5.63;;;;;10.40;100846.00;;;;10450839;28;20225;-86
2024/02/06 08:33:07;;;;;;;17.40;5.83;;;;;10.40;100847.00;;;;10442837;28;20225;-87
2024/02/06 08:38:09;;;;;;;13.60;6.37;;;;;10.40;100828.00;;;;10453773;28;20213;-86
2024/02/06 08:43:11;;;;;;;12.43;5.43;;;;;10.50;100833.00;;;;10456492;28;20205;-85
2024/02/06 08:48:14;;;;;;;14.77;4.97;;;;;10.50;100826.00;;;;10980788;22;20226;-86
2024/02/06 08:53:16;;;;;;;20.63;6.60;;;;;10.50;100823.00;;;;10434307;28;20227;-86
2024/02/06 08:58:17;;;;;;;17.37;6.57;;;;;10.70;100826.00;;;;10430172;28;20229;-86
2024/02/06 09:03:19;;;;;;;14.33;5.53;;;;;10.90;100824.00;;;;10429859;28;20232;-88
2024/02/06 09:08:20;;;;;;;18.53;6.27;;;;;11.10;100831.00;;;;10421865;28;20228;-84
2024/02/06 09:13:23;;;;;;;17.10;5.53;;;;;11.20;100835.00;;;;10426932;28;20219;-90
2024/02/06 09:18:25;;;;;;;20.70;5.73;;;;;11.30;100812.00;;;;10424180;28;20230;-87
2024/02/06 09:23:27;;;;;;;11.50;5.30;;;;;11.70;100820.00;;;;10405998;28;20221;-87
2024/02/06 09:28:29;;;;;;;21.77;4.83;;;;;11.90;100820.00;;;;10403784;28;20241;-87
2024/02/06 09:33:30;;;;;;;11.88;4.50;;;;;11.50;100811.00;;;;10386016;28;20236;-88
2024/02/06 09:38:32;;;;;;;17.70;5.93;;;;;11.50;100810.00;;;;10386370;28;20218;-87
2024/02/06 09:43:34;;;;;;;17.27;4.97;;;;;11.50;100797.00;;;;10397919;28;20218;-89
2024/02/06 09:48:36;;;;;;;12.73;4.90;;;;;11.50;100798.00;;;;10397944;28;20284;-86
2024/02/06 09:53:37;;;;;;;11.67;5.83;;;;;11.50;100803.00;;;;10407470;28;20244;-85
2024/02/06 09:58:39;;;;;;;13.90;5.70;;;;;11.30;100805.00;;;;10403975;28;20236;-89
2024/02/06 10:03:44;;;;;;;15.27;5.60;;;;;11.30;100806.00;;;;10400653;28;20296;-87
2024/02/06 10:08:49;;;;;;;13.43;4.83;;;;;11.40;100806.00;;;;10410723;28;20322;-87
2024/02/06 10:13:50;;;;;;;10.23;5.00;;;;;11.60;100789.00;;;;10421216;28;20245;-87
2024/02/06 10:18:53;;;;;;;14.27;4.67;;;;;11.80;100791.00;;;;10420381;28;20248;-85
2024/02/06 10:24:00;;;;;;;12.63;4.73;;;;;11.70;100791.00;;;;10685301;23;20225;-81
2024/02/06 10:29:08;;;;;;;14.37;4.83;;;;;11.60;100797.00;;;;10429850;28;20274;-84
2024/02/06 10:34:14;;;;;;;9.27;5.37;;;;;11.50;100792.00;;;;10430999;28;20229;-82
2024/02/06 10:39:16;;;;;;;13.95;4.40;;;;;11.70;100793.00;;;;10429807;28;20226;-84
2024/02/06 10:44:22;;;;;;;12.90;5.50;;;;;11.80;100783.00;;;;10435874;28;20264;-84
2024/02/06 10:49:23;;;;;;;12.00;4.05;;;;;11.60;100782.00;;;;10440532;28;20886;-84
2024/02/06 10:54:24;;;;;;;10.45;4.38;;;;;11.50;100785.00;;;;10450048;28;20865;-83
2024/02/06 10:59:33;;;;;;;11.90;4.50;;;;;11.60;100783.00;;;;10462433;28;20217;-85
2024/02/06 11:04:36;;;;;;;10.82;4.22;;;;;11.60;100779.00;;;;10469164;28;20223;-85
2024/02/06 11:09:39;;;;;;;16.20;4.13;;;;;11.70;100770.00;;;;10464764;28;20288;-85
2024/02/06 11:14:44;;;;;;;7.35;3.55;;;;;12.00;100757.00;;;;10484367;28;20221;-86
2024/02/06 11:19:53;;;;;;;11.77;4.07;;;;;12.60;100757.00;;;;10470386;28;20661;-87
2024/02/06 11:24:55;;;;;;;15.15;4.35;;;;;12.70;100758.00;;;;10411448;28;1177026;-84
2024/02/06 11:29:57;;;;;;;9.00;3.45;;;;;12.60;100744.00;;;;10453072;28;20225;-86
2024/02/06 11:34:59;;;;;;;11.45;3.67;;;;;12.40;100744.00;;;;10435895;28;20252;-88
2024/02/06 11:40:07;;;;;;;9.75;4.35;;;;;12.40;100729.00;;;;10430733;28;20213;-89
2024/02/06 11:45:12;;;;;;;12.77;4.70;;;;;13.00;100704.00;;;;10434593;28;20260;-88
2024/02/06 11:50:14;;;;;;;17.70;3.42;;;;;13.30;100710.00;;;;10478217;28;20213;-87
2024/02/06 11:55:16;;;;;;;11.70;3.70;;;;;13.70;100691.00;;;;10445398;28;20267;-88
2024/02/06 12:00:19;;;;;;;7.90;4.07;;;;;13.70;100688.00;;;;10459078;28;20229;-89
2024/02/06 12:05:22;;;;;;;19.75;4.03;;;;;13.40;100696.00;;;;10548168;23;20229;-84
2024/02/06 12:10:32;;;;;;;15.07;3.72;;;;;13.40;100689.00;;;;10452106;23;20234;-86
2024/02/06 12:15:36;;;;;;;7.85;3.25;;;;;13.30;100669.00;;;;10436820;28;20306;-87
2024/02/06 12:20:40;;;;;;;16.13;4.20;;;;;13.40;100673.00;;;;10436967;28;20683;-85
2024/02/06 12:25:42;;;;;;;7.13;3.03;;;;;13.90;100653.00;;;;10410797;28;20284;-85
2024/02/06 12:30:48;;;;;;;6.47;2.92;;;;;14.10;100673.00;;;;10416777;28;20567;-86
2024/02/06 12:35:54;;;;;;;10.02;3.10;;;;;14.00;100655.00;;;;10409692;28;20222;-87
2024/02/06 12:41:00;;;;;;;12.98;3.22;;;;;13.90;100644.00;;;;10420644;28;20237;-85
2024/02/06 12:46:03;;;;;;;8.30;3.35;;;;;13.90;100642.00;;;;10434662;28;20218;-81
2024/02/06 12:51:05;;;;;;;18.02;3.90;;;;;13.90;100639.00;;;;10409138;28;20222;-82
2024/02/06 12:56:07;;;;;;;10.63;3.75;;;;;13.80;100629.00;;;;10382433;28;20218;-80
2024/02/06 13:01:10;;;;;;;10.10;3.78;;;;;14.00;100613.00;;;;10402393;28;20221;-80
2024/02/06 13:06:13;;;;;;;8.23;2.90;;;;;14.20;100622.00;;;;10394628;28;20588;-79
2024/02/06 13:11:15;;;;;;;12.35;3.35;;;;;14.00;100611.00;;;;10481964;28;20235;-81
2024/02/06 13:16:19;;;;;;;10.35;3.95;;;;;13.80;100612.00;;;;10474170;28;20220;-79
2024/02/06 13:21:21;;;;;;;8.23;2.90;;;;;13.30;100615.00;;;;10468601;28;20228;-79
2024/02/06 13:26:23;;;;;;;12.70;3.15;;;;;12.60;100604.00;;;;10472642;28;20244;-80
2024/02/06 13:31:25;;;;;;;11.35;3.67;;;;;12.70;100589.00;;;;10460493;28;20242;-80
2024/02/06 13:36:39;;;;;;;11.80;3.15;;;;;12.90;100572.00;;;;10502311;28;20217;-80
2024/02/06 13:41:41;;;;;;;8.98;3.13;;;;;12.60;100572.00;;;;10472709;28;20236;-79
2024/02/06 13:46:43;;;;;;;11.85;3.10;;;;;12.20;100555.00;;;;10472015;28;20220;-80
2024/02/06 13:51:45;;;;;;;9.13;3.00;;;;;12.00;100529.00;;;;10502092;28;20288;-80
2024/02/06 13:56:47;;;;;;;10.50;3.03;;;;;12.20;100561.00;;;;10463051;28;21045;-79
2024/02/06 14:01:49;;;;;;;8.20;2.85;;;;;12.20;100559.00;;;;10466819;28;20217;-80
2024/02/06 14:06:51;;;;;;;10.55;2.90;;;;;12.20;100563.00;;;;10463346;28;20243;-78
2024/02/06 14:11:57;;;;;;;13.35;3.38;;;;;12.10;100558.00;;;;10465856;28;20223;-79
2024/02/06 14:16:59;;;;;;;11.03;3.13;;;;;12.10;100548.00;;;;10458043;28;20221;-78
2024/02/06 14:22:01;;;;;;;8.60;2.90;;;;;12.00;100538.00;;;;10466351;28;20217;-78
2024/02/06 14:27:03;;;;;;;14.03;3.83;;;;;11.80;100548.00;;;;10482249;28;20884;-82
2024/02/06 14:32:05;;;;;;;8.25;3.10;;;;;11.60;100538.00;;;;10469591;28;20220;-78
2024/02/06 14:37:07;;;;;;;9.33;3.53;;;;;11.90;100551.00;;;;10464756;28;20244;-80
2024/02/06 14:42:09;;;;;;;9.10;3.53;;;;;12.10;100548.00;;;;10473119;28;20216;-80
2024/02/06 14:47:11;;;;;;;13.40;3.72;;;;;12.10;100540.00;;;;10462521;28;20229;-78
2024/02/06 14:52:13;;;;;;;11.47;3.40;;;;;12.30;100538.00;;;;10470661;28;20213;-77
2024/02/06 14:57:16;;;;;;;9.90;3.10;;;;;12.10;100536.00;;;;10462105;28;20282;-82
2024/02/06 15:02:18;;;;;;;10.30;3.25;;;;;11.90;100527.00;;;;10472627;28;20220;-78
2024/02/06 15:07:20;;;;;;;10.60;3.43;;;;;11.80;100529.00;;;;10468245;28;20228;-84
2024/02/06 15:12:23;;;;;;;9.13;3.30;;;;;11.70;100533.00;;;;10464525;28;20312;-85
2024/02/06 15:17:25;;;;;;;7.90;3.53;;;;;11.70;100534.00;;;;10472024;28;20212;-86
2024/02/06 15:22:28;;;;;;;12.43;3.60;;;;;11.50;100517.00;;;;10471454;28;20262;-87
2024/02/06 15:27:30;;;;;;;15.67;4.93;;;;;11.40;100523.00;;;;10479830;28;20219;-82
2024/02/06 15:32:32;;;;;;;12.63;3.87;;;;;11.40;100524.00;;;;10477529;28;20224;-83
2024/02/06 15:37:34;;;;;;;13.10;4.00;;;;;11.40;100519.00;;;;10465481;28;20792;-84
2024/02/06 15:42:36;;;;;;;7.93;3.63;;;;;11.40;100520.00;;;;10447957;28;20209;-83
2024/02/06 15:47:38;;;;;;;12.90;4.00;;;;;11.40;100519.00;;;;10443051;28;20681;-82
2024/02/06 15:52:41;;;;;;;8.10;3.60;;;;;11.40;100507.00;;;;10466179;28;20221;-83
2024/02/06 15:57:43;;;;;;;12.43;4.67;;;;;11.40;100499.00;;;;10471889;28;20216;-82
2024/02/06 16:02:44;;;;;;;11.73;3.53;;;;;11.50;100496.00;;;;10478859;28;20591;-84
2024/02/06 16:07:47;;;;;;;14.63;4.13;;;;;11.50;100499.00;;;;10454936;28;20216;-80
2024/02/06 16:12:49;;;;;;;10.75;4.65;;;;;11.50;100496.00;;;;10466799;28;20228;-80
2024/02/06 16:17:55;;;;;;;10.60;3.80;;;;;11.50;100493.00;;;;10450733;28;20229;-85
2024/02/06 16:22:57;;;;;;;15.77;4.80;;;;;11.50;100491.00;;;;10468643;28;20216;-85
2024/02/06 16:28:00;;;;;;;13.67;4.13;;;;;11.50;100493.00;;;;10468273;28;20290;-84
2024/02/06 16:33:02;;;;;;;14.17;5.27;;;;;11.50;100486.00;;;;10468385;28;20618;-84
2024/02/06 16:38:04;;;;;;;16.27;4.80;;;;;11.50;100487.00;;;;10454864;28;20230;-88
2024/02/06 16:43:06;;;;;;;11.97;4.90;;;;;11.50;100494.00;;;;10466835;28;20216;-84
2024/02/06 16:48:08;;;;;;;14.60;4.72;;;;;11.50;100472.00;;;;10455497;28;20851;-85
2024/02/06 16:53:10;;;;;;;17.70;4.30;;;;;11.40;100476.00;;;;10469417;28;20225;-83
2024/02/06 16:58:13;;;;;;;13.50;4.53;;;;;11.40;100461.00;;;;10475736;28;20249;-82
2024/02/06 17:03:14;;;;;;;13.87;4.00;;;;;11.40;100446.00;;;;10501099;28;20234;-84
2024/02/06 17:08:17;;;;;;;9.57;4.00;;;;;11.50;100451.00;;;;10460535;28;20214;-87
2024/02/06 17:13:19;;;;;;;17.13;3.90;;;;;11.50;100450.00;;;;10468406;28;20273;-83
2024/02/06 17:18:27;;;;;;;9.17;3.37;;;;;11.50;100446.00;;;;10466526;28;20316;-85
2024/02/06 17:23:29;;;;;;;12.27;3.27;;;;;11.50;100466.00;;;;10467665;28;20312;-84
2024/02/06 17:28:31;;;;;;;12.70;3.27;;;;;11.50;100465.00;;;;10478641;28;20216;-83
2024/02/06 17:33:34;;;;;;;14.63;4.40;;;;;11.50;100467.00;;;;10465795;28;20307;-85
2024/02/06 17:38:36;;;;;;;12.10;3.83;;;;;11.40;100467.00;;;;10470458;28;20287;-79
2024/02/06 17:43:39;;;;;;;9.03;4.00;;;;;11.30;100466.00;;;;10467943;28;20711;-80
2024/02/06 17:48:41;;;;;;;11.00;4.53;;;;;11.30;100463.00;;;;10491666;28;20585;-79
2024/02/06 17:53:43;;;;;;;10.80;4.47;;;;;11.30;100456.00;;;;10471568;28;20659;-81
2024/02/06 17:58:45;;;;;;;14.13;4.93;;;;;11.30;100472.00;;;;10493692;28;20920;-79
2024/02/06 18:03:49;;;;;;;10.87;4.53;;;;;11.20;100455.00;;;;10464049;28;20229;-80
2024/02/06 18:08:51;;;;;;;14.00;4.50;;;;;11.20;100428.00;;;;10467101;28;20246;-80
2024/02/06 18:13:53;;;;;;;11.17;4.70;;;;;11.10;100428.00;;;;10462666;28;20229;-81
2024/02/06 18:18:55;;;;;;;15.37;4.97;;;;;11.10;100415.00;;;;10484217;28;20224;-79
2024/02/06 18:23:57;;;;;;;13.97;4.93;;;;;11.00;100411.00;;;;10476049;28;20303;-80
2024/02/06 18:28:59;;;;;;;9.60;4.20;;;;;10.90;100405.00;;;;10463767;28;20264;-80
2024/02/06 18:34:01;;;;;;;12.83;4.70;;;;;10.90;100405.00;;;;10475630;28;20226;-83
2024/02/06 18:39:04;;;;;;;13.17;4.23;;;;;10.90;100382.00;;;;10457416;28;20324;-80
2024/02/06 18:44:06;;;;;;;9.17;3.77;;;;;10.90;100380.00;;;;10473559;28;20868;-80
2024/02/06 18:49:08;;;;;;;11.20;5.20;;;;;10.90;100385.00;;;;10463102;28;20756;-79
2024/02/06 18:54:11;;;;;;;12.40;4.87;;;;;10.90;100386.00;;;;10463631;28;20990;-82
2024/02/06 18:59:14;;;;;;;8.83;4.07;;;;;10.90;100389.00;;;;10494985;28;20228;-79
2024/02/06 19:04:19;;;;;;;11.70;4.23;;;;;10.80;100386.00;;;;10475355;28;20278;-80
2024/02/06 19:09:21;;;;;;;14.17;4.30;;;;;10.80;100377.00;;;;10465477;28;20216;-81
2024/02/06 19:14:23;;;;;;;9.93;4.17;;;;;10.80;100356.00;;;;10466604;28;20224;-80
2024/02/06 19:19:25;;;;;;;14.13;4.10;;;;;10.80;100356.00;;;;10459985;28;20248;-80
2024/02/06 19:24:28;;;;;;;10.47;4.13;;;;;10.70;100344.00;;;;10477266;28;20884;-81
2024/02/06 19:29:30;;;;;;;12.53;4.27;;;;;10.70;100354.00;;;;10453549;28;20285;-80
2024/02/06 19:34:33;;;;;;;14.77;4.73;;;;;10.70;100352.00;;;;10516127;28;20231;-79
2024/02/06 19:39:36;;;;;;;9.20;4.13;;;;;10.80;100352.00;;;;10470517;28;20209;-80
2024/02/06 19:44:40;;;;;;;14.10;4.67;;;;;10.90;100359.00;;;;10462534;28;20300;-80
2024/02/06 19:49:42;;;;;;;12.20;4.10;;;;;10.90;100360.00;;;;10449897;28;20217;-80
2024/02/06 19:54:45;;;;;;;6.47;3.30;;;;;11.00;100369.00;;;;10454397;28;20221;-81
2024/02/06 19:59:48;;;;;;;12.10;4.53;;;;;11.10;100358.00;;;;10458105;28;20250;-81
2024/02/06 20:04:50;;;;;;;8.97;4.27;;;;;11.20;100356.00;;;;10468846;28;20228;-84
2024/02/06 20:09:52;;;;;;;11.43;4.30;;;;;11.20;100360.00;;;;10460796;28;20249;-83
2024/02/06 20:14:55;;;;;;;17.23;4.37;;;;;11.30;100350.00;;;;10472698;28;20606;-80
2024/02/06 20:19:57;;;;;;;11.57;4.60;;;;;11.30;100334.00;;;;10473366;28;20209;-81
2024/02/06 20:25:00;;;;;;;13.97;4.33;;;;;11.30;100340.00;;;;10496961;28;20298;-82
2024/02/06 20:30:03;;;;;;;10.47;3.67;;;;;11.30;100320.00;;;;10485177;28;20307;-83
2024/02/06 20:35:05;;;;;;;11.60;4.07;;;;;11.30;100308.00;;;;10475632;28;20224;-81
2024/02/06 20:40:08;;;;;;;14.40;4.43;;;;;11.30;100297.00;;;;10462386;28;20243;-81
2024/02/06 20:45:10;;;;;;;12.77;3.77;;;;;11.30;100297.00;;;;10470433;28;20231;-83
2024/02/06 20:50:13;;;;;;;16.67;4.27;;;;;11.40;100274.00;;;;10467951;28;20328;-81
2024/02/06 20:55:15;;;;;;;7.10;3.33;;;;;11.40;100288.00;;;;10471720;28;20213;-82
2024/02/06 21:00:18;;;;;;;14.90;4.00;;;;;11.40;100285.00;;;;10463669;28;20312;-80
2024/02/06 21:05:19;;;;;;;11.53;4.37;;;;;11.40;100268.00;;;;10492487;28;20209;-89
2024/02/06 21:10:22;;;;;;;11.40;3.60;;;;;11.40;100269.00;;;;10501402;28;20583;-89
2024/02/06 21:15:24;;;;;;;9.20;3.60;;;;;11.40;100269.00;;;;10505468;28;20209;-88
2024/02/06 21:20:26;;;;;;;9.10;3.83;;;;;11.30;100238.00;;;;10502456;28;20220;-87
2024/02/06 21:25:28;;;;;;;11.13;3.70;;;;;11.30;100255.00;;;;10521626;23;20276;-89
2024/02/06 21:30:30;;;;;;;12.47;4.17;;;;;11.20;100243.00;;;;10540343;23;20235;-89
2024/02/06 21:35:31;;;;;;;11.97;4.03;;;;;11.10;100232.00;;;;10421799;28;20214;-86
2024/02/06 21:40:33;;;;;;;11.63;3.93;;;;;11.10;100237.00;;;;10414515;28;20214;-88
2024/02/06 21:45:35;;;;;;;9.97;4.40;;;;;11.00;100235.00;;;;10426262;28;20268;-87
2024/02/06 21:50:37;;;;;;;9.60;3.63;;;;;10.90;100239.00;;;;10413728;28;20222;-90
2024/02/06 21:55:39;;;;;;;13.00;4.63;;;;;10.90;100234.00;;;;10410479;28;20249;-87
2024/02/06 22:00:43;;;;;;;11.17;4.80;;;;;10.90;100233.00;;;;10407798;28;20329;-89
2024/02/06 22:05:45;;;;;;;13.17;4.83;;;;;10.70;100238.00;;;;10406404;28;20693;-90
2024/02/06 22:10:54;;;;;;;11.83;5.70;;;;;10.50;100222.00;;;;10416324;28;20224;-86
2024/02/06 22:15:57;;;;;;;18.37;5.63;;;;;10.40;100204.00;;;;10455269;28;20209;-85
2024/02/06 22:20:58;;;;;;;15.63;4.57;;;;;10.30;100180.00;;;;10412557;28;20245;-85
2024/02/06 22:26:01;;;;;;;13.23;5.20;;;;;10.30;100177.00;;;;10403563;28;20240;-84
2024/02/06 22:31:05;;;;;;;10.00;3.97;;;;;10.40;100161.00;;;;10380228;28;20573;-84
2024/02/06 22:36:08;;;;;;;10.60;5.80;;;;;10.50;100163.00;;;;10348264;28;20214;-86
2024/02/06 22:41:10;;;;;;;16.37;5.80;;;;;10.50;100160.00;;;;10356200;28;20556;-86
2024/02/06 22:46:12;;;;;;;9.77;5.10;;;;;10.60;100156.00;;;;10347211;28;20238;-85
2024/02/06 22:51:14;;;;;;;15.77;5.83;;;;;10.60;100147.00;;;;10345365;28;20226;-84
2024/02/06 22:56:16;;;;;;;14.20;5.23;;;;;10.70;100147.00;;;;10345809;28;20265;-86
2024/02/06 23:01:18;;;;;;;13.67;6.03;;;;;10.60;100134.00;;;;10346734;28;20617;-86
2024/02/06 23:06:20;;;;;;;10.10;4.33;;;;;10.50;100124.00;;;;10350310;28;20227;-84
2024/02/06 23:11:22;;;;;;;14.57;3.70;;;;;10.50;100140.00;;;;10360501;28;20235;-84
2024/02/06 23:16:24;;;;;;;12.40;4.93;;;;;10.50;100132.00;;;;10367536;28;20219;-84
2024/02/06 23:21:26;;;;;;;12.93;5.33;;;;;10.40;100133.00;;;;10351648;28;20215;-84
2024/02/06 23:26:28;;;;;;;13.40;6.07;;;;;10.50;100131.00;;;;10353695;28;20286;-81
2024/02/06 23:31:30;;;;;;;11.70;5.97;;;;;10.50;100144.00;;;;10391932;28;20301;-83
2024/02/06 23:36:32;;;;;;;9.93;5.60;;;;;10.50;100136.00;;;;10393572;28;20225;-82
2024/02/06 23:41:34;;;;;;;10.83;5.23;;;;;10.50;100118.00;;;;10398220;28;20226;-82
2024/02/06 23:46:35;;;;;;;12.47;5.50;;;;;10.40;100122.00;;;;10409772;28;20219;-82
2024/02/06 23:51:38;;;;;;;9.77;4.90;;;;;10.40;100112.00;;;;10388567;28;20897;-83
2024/02/06 23:56:40;;;;;;;13.87;5.50;;;;;10.40;100108.00;;;;10406299;28;20729;-80
